Colonia Baron, Argentina
Current Conditions -  °F | °C
As of 3:00 PM on Friday 31 Oct 2014 (Local Time) from SAOC Reporting Station
Thunderstorm Thunderstorm  
Wind Chill: 59°   Ceiling: 4000
Heat Index: 59°   Visibility: 5mi
Dew Point: 50°   Wind: 7mph
Humidity: 72%   Direction: 200°SSW
Pressure: 30"   Gusts: NA
Location:  36.15°S, 63.85°W
Report Text: SAOC 311800Z 20006KT 8000 TSRA FEW020 FEW040CBBKN040 15/10 Q1016
Loading
Personal Weather Stations






























Interactive Weather Map New forecast layout! Learn more

10-Day Weather Forecast

Advertisements
Track Severe Weather on mobile